createdAt,value
2022-12-13T00:01:42.768Z,65.09
2022-12-13T00:06:48.276Z,65.13
2022-12-13T00:11:57.427Z,64.74
2022-12-13T00:17:04.288Z,65.00
2022-12-13T00:22:12.202Z,64.87
2022-12-13T00:27:16.187Z,64.46
2022-12-13T00:32:24.517Z,64.28
2022-12-13T00:37:31.244Z,64.05
2022-12-13T00:42:38.720Z,63.90
2022-12-13T00:48:09.130Z,63.88
2022-12-13T00:53:21.514Z,64.11
2022-12-13T00:58:27.343Z,63.90
2022-12-13T01:03:42.044Z,64.10
2022-12-13T01:09:12.703Z,64.28
2022-12-13T01:14:18.759Z,64.41
2022-12-13T01:19:43.077Z,64.48
2022-12-13T01:24:47.692Z,64.26
2022-12-13T01:29:52.876Z,64.33
2022-12-13T01:35:04.374Z,64.20
2022-12-13T01:40:16.180Z,64.13
2022-12-13T01:45:30.036Z,64.12
2022-12-13T01:50:42.844Z,64.19
2022-12-13T01:56:02.165Z,64.08
2022-12-13T02:07:03.051Z,64.23
2022-12-13T02:12:19.173Z,64.22
2022-12-13T02:18:26.590Z,63.98
2022-12-13T02:25:05.681Z,63.90
2022-12-13T02:31:06.290Z,63.65
2022-12-13T02:36:38.933Z,63.94
2022-12-13T02:51:17.944Z,63.39
2022-12-13T03:10:02.733Z,63.27
2022-12-13T03:15:22.365Z,63.22
2022-12-13T03:20:35.305Z,63.05
2022-12-13T03:25:39.944Z,63.34
2022-12-13T03:30:49.101Z,63.40
2022-12-13T03:35:53.642Z,63.59
2022-12-13T03:41:16.546Z,65.08
2022-12-13T03:51:46.203Z,63.65
2022-12-13T03:57:04.238Z,63.50
2022-12-13T04:02:31.052Z,63.66
2022-12-13T04:07:36.206Z,63.61
2022-12-13T04:13:00.627Z,63.93
2022-12-13T04:18:21.067Z,63.32
2022-12-13T04:24:01.028Z,63.63
2022-12-13T04:34:41.388Z,63.89
2022-12-13T04:40:39.571Z,63.91
2022-12-13T04:45:50.140Z,64.00
2022-12-13T04:51:06.888Z,64.48
2022-12-13T04:56:18.410Z,64.02
2022-12-13T05:01:36.140Z,63.91
2022-12-13T05:12:30.244Z,64.40
2022-12-13T05:17:44.313Z,64.62
2022-12-13T05:23:47.537Z,64.86
2022-12-13T05:29:11.135Z,64.83
2022-12-13T05:34:27.083Z,64.99
2022-12-13T05:51:10.477Z,64.79
2022-12-13T05:57:16.448Z,64.81
2022-12-13T06:02:50.397Z,65.06
2022-12-13T06:08:24.975Z,65.39
2022-12-13T06:24:55.705Z,65.42
2022-12-13T06:30:02.676Z,65.41
2022-12-13T06:35:51.062Z,65.34
2022-12-13T06:41:40.828Z,64.79
2022-12-13T06:46:45.746Z,64.56
2022-12-13T06:51:57.562Z,64.42
2022-12-13T06:57:20.319Z,64.22
2022-12-13T07:02:48.619Z,64.17
2022-12-13T07:07:58.476Z,64.23
2022-12-13T07:14:06.905Z,64.12
2022-12-13T07:19:45.391Z,64.04
2022-12-13T07:37:30.350Z,63.34
2022-12-13T07:43:03.345Z,63.28
2022-12-13T08:00:46.841Z,62.24
2022-12-13T08:06:15.069Z,61.62
2022-12-13T08:11:43.879Z,61.03
2022-12-13T08:17:23.260Z,61.44
2022-12-13T08:22:35.959Z,61.13
2022-12-13T08:40:47.785Z,61.21
2022-12-13T08:53:35.232Z,60.90
2022-12-13T08:57:58.969Z,60.82
2022-12-13T09:03:58.138Z,60.25
2022-12-13T09:09:24.000Z,60.19
2022-12-13T09:14:34.370Z,60.40
2022-12-13T09:19:38.360Z,61.14
2022-12-13T09:24:50.194Z,60.62
2022-12-13T09:29:53.870Z,60.62
2022-12-13T09:34:57.453Z,60.53
2022-12-13T09:40:16.023Z,60.54
2022-12-13T09:45:32.019Z,59.84
2022-12-13T09:50:37.067Z,59.65
2022-12-13T09:55:50.267Z,59.56
2022-12-13T10:00:58.902Z,59.60
2022-12-13T10:06:24.342Z,59.39
2022-12-13T10:11:38.600Z,59.44
2022-12-13T10:16:49.671Z,59.31
2022-12-13T10:21:53.728Z,58.83
2022-12-13T10:27:18.028Z,59.72
2022-12-13T10:32:52.602Z,59.64
2022-12-13T10:37:55.509Z,59.25
2022-12-13T10:43:15.959Z,58.48
2022-12-13T10:48:31.557Z,57.80
2022-12-13T10:54:03.337Z,56.63
2022-12-13T10:59:21.484Z,56.58
2022-12-13T11:04:43.172Z,56.42
2022-12-13T11:10:05.481Z,57.02
2022-12-13T11:15:28.017Z,57.25
2022-12-13T11:21:03.079Z,56.90
2022-12-13T11:26:24.384Z,57.54
2022-12-13T11:31:59.511Z,57.24
2022-12-13T11:37:48.998Z,57.20
2022-12-13T11:43:23.099Z,56.96
2022-12-13T11:48:44.836Z,56.95
2022-12-13T11:53:57.291Z,57.33
2022-12-13T11:59:27.684Z,57.22
2022-12-13T12:04:38.829Z,57.48
2022-12-13T12:09:53.948Z,57.21
2022-12-13T12:15:15.745Z,57.04
2022-12-13T12:20:45.560Z,57.12
2022-12-13T12:26:31.822Z,57.12
2022-12-13T12:31:51.222Z,57.03
2022-12-13T12:37:13.838Z,57.17
2022-12-13T12:42:56.840Z,56.95
2022-12-13T12:53:59.645Z,57.33
2022-12-13T12:59:18.940Z,57.37
2022-12-13T13:04:36.277Z,57.55
2022-12-13T13:09:41.946Z,57.97
2022-12-13T13:14:45.935Z,57.91
2022-12-13T13:20:04.105Z,57.85
2022-12-13T13:25:26.986Z,57.76
2022-12-13T13:30:32.290Z,57.80
2022-12-13T13:35:48.317Z,57.66
2022-12-13T13:40:58.842Z,57.30
2022-12-13T13:46:02.782Z,57.52
2022-12-13T13:51:25.085Z,57.21
2022-12-13T13:56:50.186Z,55.87
2022-12-13T14:02:36.224Z,55.44
2022-12-13T14:08:20.885Z,55.95
2022-12-13T14:14:25.037Z,55.46
2022-12-13T14:20:15.116Z,55.58
2022-12-13T14:25:46.416Z,55.84
2022-12-13T14:30:57.198Z,57.00
2022-12-13T14:36:05.868Z,57.79
2022-12-13T14:41:21.327Z,57.29
2022-12-13T14:46:25.577Z,57.20
2022-12-13T14:51:38.036Z,57.49
2022-12-13T14:56:59.107Z,57.75
2022-12-13T15:02:31.085Z,59.43
2022-12-13T15:07:39.662Z,58.53
2022-12-13T15:12:52.520Z,57.17
2022-12-13T15:24:22.200Z,56.60
2022-12-13T15:29:36.003Z,56.20
2022-12-13T15:35:16.987Z,56.15
2022-12-13T15:40:21.218Z,55.89
2022-12-13T15:45:41.620Z,55.72
2022-12-13T15:50:50.538Z,55.67
2022-12-13T15:55:57.254Z,55.83
2022-12-13T16:01:08.749Z,55.85
2022-12-13T16:06:24.142Z,55.83
2022-12-13T16:11:34.139Z,56.03
2022-12-13T16:16:38.889Z,56.01
2022-12-13T16:21:51.570Z,56.39
2022-12-13T16:26:55.942Z,56.06
2022-12-13T16:32:08.335Z,58.33
2022-12-13T16:37:25.379Z,55.90
2022-12-13T16:42:32.372Z,55.42
2022-12-13T16:47:41.835Z,55.26
2022-12-13T16:53:23.207Z,55.14
2022-12-13T16:58:49.924Z,54.82
2022-12-13T17:04:35.200Z,55.61
2022-12-13T17:09:39.744Z,55.36
2022-12-13T17:14:43.737Z,54.28
2022-12-13T17:19:47.997Z,53.78
2022-12-13T17:24:59.604Z,53.08
2022-12-13T17:35:39.669Z,53.26
2022-12-13T17:40:54.499Z,56.78
2022-12-13T17:46:14.515Z,56.24
2022-12-13T17:51:18.675Z,53.33
2022-12-13T17:56:26.243Z,53.09
2022-12-13T18:01:36.137Z,53.01
2022-12-13T18:06:44.047Z,53.36
2022-12-13T18:11:50.898Z,53.76
2022-12-13T18:16:59.631Z,54.08
2022-12-13T18:22:03.877Z,53.86
2022-12-13T18:27:08.058Z,54.08
2022-12-13T18:32:14.249Z,55.42
2022-12-13T18:37:34.951Z,55.82
2022-12-13T18:42:42.203Z,54.34
2022-12-13T18:47:46.435Z,54.02
2022-12-13T18:52:59.806Z,54.67
2022-12-13T18:58:04.548Z,55.99
2022-12-13T19:03:17.330Z,54.05
2022-12-13T19:08:26.727Z,53.90
2022-12-13T19:13:46.151Z,54.03
2022-12-13T19:18:53.221Z,54.09
2022-12-13T19:24:01.303Z,54.44
2022-12-13T19:29:16.928Z,54.17
2022-12-13T19:34:21.613Z,54.02
2022-12-13T19:39:28.966Z,55.91
2022-12-13T19:44:35.029Z,54.67
2022-12-13T19:49:39.675Z,54.50
2022-12-13T19:54:47.690Z,54.19
2022-12-13T19:59:51.464Z,53.87
2022-12-13T20:04:54.671Z,54.07
2022-12-13T20:09:57.725Z,54.49
2022-12-13T20:15:03.342Z,54.20
2022-12-13T20:20:06.917Z,54.59
2022-12-13T20:25:13.299Z,54.59
2022-12-13T20:30:19.211Z,54.68
2022-12-13T20:35:22.287Z,54.84
2022-12-13T20:40:26.463Z,55.04
2022-12-13T20:45:32.569Z,55.34
2022-12-13T20:50:35.577Z,55.11
2022-12-13T20:55:38.591Z,55.48
2022-12-13T21:00:41.634Z,55.50
2022-12-13T21:05:46.667Z,56.02
2022-12-13T21:10:49.784Z,56.20
2022-12-13T21:15:53.133Z,56.34
2022-12-13T21:20:57.355Z,56.49
2022-12-13T21:26:01.398Z,56.56
2022-12-13T21:31:08.576Z,56.62
2022-12-13T21:42:22.566Z,56.66
2022-12-13T21:47:33.759Z,56.56
2022-12-13T21:52:48.047Z,56.57
2022-12-13T21:58:19.080Z,56.49
2022-12-13T22:03:26.044Z,56.53
2022-12-13T22:08:30.256Z,56.86
2022-12-13T22:13:37.207Z,57.44
2022-12-13T22:18:43.128Z,57.77
2022-12-13T22:25:34.143Z,57.60
2022-12-13T22:29:59.472Z,57.40
2022-12-13T22:35:08.323Z,57.41
2022-12-13T22:46:14.659Z,58.02
2022-12-13T22:51:21.088Z,58.42
2022-12-13T22:57:02.775Z,58.72
2022-12-13T23:02:26.635Z,58.79
2022-12-13T23:13:29.972Z,59.32
2022-12-13T23:19:10.697Z,59.49
2022-12-13T23:24:46.205Z,59.59
2022-12-13T23:43:20.855Z,59.62
2022-12-13T23:50:53.549Z,59.59
2022-12-13T23:56:30.758Z,59.39
